LFKC/CLY METAR and TAF weather

Enter ICAO airport designator
Station Type Date Time Source
LFKC METAR 2019/04/24 22:00 UTC NOAA

LFKC 242200Z AUTO VRB03KT 9999 FEW019 BKN028 13/12 Q1017


Station Type Date Time Source
LFKC Decoded METAR 2019/04/24 22:00 UTC NOAA

Calvi, France (LFKC) 42-32N 008-48E 58M
Apr 24, 2019 - 06:00 PM EDT / 2019.04.24 2200 UTC
Wind: Variable at 3 MPH (3 KT):0
Visibility: greater than 7 mile(s):0
Sky conditions: mostly cloudy
Temperature: 55 F (13 C)
Dew Point: 53 F (12 C)
Relative Humidity: 93%
Pressure (altimeter): 30.03 in. Hg (1017 hPa)
ob: LFKC 242200Z AUTO VRB03KT 9999 FEW019 BKN028 13/12 Q1017
cycle: 22

Station Type Date Time Source
LFKC TAF 2019/04/24 20:39 UTC NOAA

TAF LFKC 242030Z 2420/2515 CNL

Example: see airport list